x

N01 - Northeast Channel (44024) Wave Buoy

12:04am - Tue 25th Apr 2017 All times are ADT. -3 hours from GMT.

  • Sig Wave height 3.6ft
  • Peak Period 11s
  • Wind
    4mph
  • Sea Temp 41°f
  • Air Temp 40°f
  • Sea Pressure 1024.8mb
  • N01 - Northeast Channel
  • N01 - Northeast Channel

More Historic Weather Station data

Upgrade to MSW Pro to gain access to the past 30 days of data for over 8000 Wavebouys and Weather Stations around the globe.

Join Pro

Comparision Forecast

View Surf forecast
   
Tue 04/25 12:04am 3.5ft 11s 4
mph
1024.8mb 41f 40f
Mon 04/24 11:04pm 3.5ft 11s 4 7 mph 1024.8mb 40f 40f
10:04pm 4.5ft 16s 4
mph
1024.8mb 41f 39f
9:04pm 1.6ft 5s 2 4 mph 1024.5mb 42f 39f
8:04pm 4.5ft 11s 4 7 mph 1023.5mb 42f 39f
7:04pm 3.5ft 11s 7
mph
1023.5mb 42f 40f
6:04pm 4ft 11s 9
mph
1023.2mb 42f 40f
5:04pm 2ft 5s 11 13 mph 1023.3mb 42f 41f
4:04pm 2ft 4s 11 13 mph 1022.8mb 42f 41f
3:04pm 3.5ft 11s 11 13 mph 1023.1mb 42f 42f
2:04pm 4ft 11s 9 11 mph 1023mb 41f 44f
1:04pm 1.3ft 4s 7 9 mph 1023.3mb 41f 43f
12:04pm 1.3ft 4s 9
mph
1023.2mb 40f 43f
11:04am 3ft 8s 9 11 mph 1022.9mb 40f 42f
10:04am 3.5ft 11s 9 11 mph 1022.7mb 39f 41f
9:04am 4ft 11s 9 11 mph 1022.3mb 40f 42f
8:04am 4ft 8s 13 16 mph 1021.8mb 39f 42f
7:04am 4.5ft 8s 11
mph
1021.3mb 40f 42f
6:04am 4.5ft 11s 9 11 mph 1020.5mb 40f 41f
5:04am 5ft 11s 11 13 mph 1019.9mb 40f 41f
4:04am 5ft 11s 11 13 mph 1020mb 40f 41f
3:04am 5ft 8s 9 11 mph 1019.8mb 40f 41f
2:04am 4.5ft 8s 9 11 mph 1020.4mb 40f 41f
1:04am 4.5ft 8s 7 9 mph 1019.9mb 39f 40f
12:04am 5ft 11s 7 9 mph 1020mb 39f 40f
Sun 04/23 11:04pm 5ft 11s 7 9 mph 1019.6mb 39f 40f
10:04pm 4ft 8s 7
mph
1019.1mb 40f 40f
9:04pm 4.5ft 11s 7
mph
1018.5mb 40f 40f
8:04pm 5ft 11s 7
mph
1017.8mb 40f 40f
7:04pm 6ft 6s 7 9 mph 1017.7mb 40f 40f
6:04pm 5ft 11s 11 13 mph 1017.4mb 40f 40f
5:04pm 7ft 11s 11 16 mph 1017.1mb 40f 40f
4:04pm 5.5ft 6s 13 16 mph 1016.7mb 40f 40f
3:04pm 9ft 6s 16 18 mph 1016.7mb 40f 39f
2:04pm 9ft 8s 16 20 mph 1016.2mb 41f 39f
12:04pm 8.5ft 11s 16 18 mph 1015.5mb 41f 39f
10:04am 5.5ft 5s 13 18 mph 1014mb 38f 38f
9:04am 7ft 6s 18 22 mph 1012.7mb 38f 38f
8:04am 7ft 6s 18 22 mph 1011.9mb 38f 38f
7:04am  -   -  20 27 mph 1010.8mb 42f 38f
6:04am 8.5ft 6s 20 25 mph 1009.6mb 40f 38f
4:04am  -   -  20 25 mph 1007.4mb 40f 38f
3:04am  -   -  20 25 mph 1006.7mb 40f 38f
2:04am 9.5ft 8s 20 25 mph 1006.2mb 42f 39f
1:04am  -   -  16 22 mph 1005.9mb - 39f
12:04am  -   -  16 20 mph 1006.4mb - 40f
Sat 04/22 11:04pm 7ft 8s 13 16 mph 1006mb 40f 40f
10:04pm 9ft 8s 16 20 mph 1006.4mb 39f 40f
9:04pm 9ft 11s 18 22 mph 1006.6mb 39f 40f
8:04pm 8.5ft 11s 25 29 mph 1007.2mb 40f 40f
7:04pm 7.5ft 11s 29 34 mph 1008mb 41f 40f
6:04pm 8ft 11s 22 27 mph 1010.4mb 42f 40f
5:04pm 8ft 11s 22 27 mph 1009.9mb 42f 40f
4:04pm 9ft 11s 25 29 mph 1010.2mb 42f 40f
3:04pm 9ft 11s 25 29 mph 1011.3mb 42f 40f
2:04pm 9ft 11s 25 31 mph 1012.3mb 42f 40f
1:04pm 9.5ft 11s 22 29 mph 1013mb 42f 39f
12:04pm 7ft 11s 20 25 mph 1014.1mb 41f 40f
11:04am 6.5ft 11s 22 27 mph 1014mb 40f 40f
10:04am 6.5ft 11s 20 22 mph 1014.4mb 40f 40f
9:04am 5.5ft 11s 16 18 mph 1014.6mb 40f 41f
8:04am 6ft 11s 16 18 mph 1014.7mb 40f 41f
7:04am 6ft 11s 18 20 mph 1014.1mb 40f 41f
6:04am 6ft 11s 16 20 mph 1014.7mb 41f 41f
5:04am 5.5ft 8s 18 20 mph 1015.4mb 42f 41f
4:04am 6.5ft 11s 18 20 mph 1015.8mb 42f 42f
3:04am 6.5ft 11s 16 20 mph 1015.9mb 42f 41f
2:04am 7ft 11s 18 20 mph 1016.4mb 41f 41f
1:04am 4ft 5s 16 20 mph 1017.7mb 41f 41f
12:04am 6.5ft 11s 16 20 mph 1018mb 41f 40f
Fri 04/21 11:04pm 7ft 11s 18 22 mph 1018.5mb 41f 39f
10:04pm 7.5ft 11s 18 25 mph 1019mb 40f 39f
9:04pm 6.5ft 11s 20 27 mph 1018.8mb 40f 38f
8:04pm 6ft 11s 18 20 mph 1019.5mb 39f 38f
7:04pm  -   -  16 20 mph 1019.6mb 39f 38f
6:04pm 6ft 11s 18 22 mph 1019.9mb 41f 38f
5:04pm 3.5ft 4s 18 22 mph 1019.6mb 42f 39f
4:04pm 3.5ft 5s 18 20 mph 1019.9mb 42f 39f
3:04pm 4ft 5s 20 25 mph 1020.2mb 42f 38f
2:04pm 3.5ft 5s 20 22 mph 1020.3mb 42f 38f
1:04pm 4.5ft 6s 16 18 mph 1021.1mb 41f 38f
12:04pm 6ft 8s 18 20 mph 1021.2mb 40f 38f
11:04am 6ft 11s 18 22 mph 1021.5mb 40f 37f
10:04am 5ft 11s 18 22 mph 1021.5mb 40f 37f
9:04am 5ft 11s 18 20 mph 1021.8mb 39f 37f
8:04am 5.5ft 11s 16 20 mph 1021.8mb 39f 38f
7:04am 5ft 11s 16 18 mph 1021.4mb 39f 38f
6:04am 5ft 11s 16 18 mph 1020.9mb 40f 38f
5:04am 5.5ft 8s 18 20 mph 1021.1mb 40f 38f